Wolke Sonne

Wetter Ammerndorf

Gehe zu: Roßtal

Tageswerte vom Mittwoch, 25.11.2020

Optionen

Tag:
Erweitert:

Alle Werte vom Mittwoch, 25.11.2020

Einen Moment bitte, die Daten werden aufbereitet...

UhrzeitTemperaturBoden 10cmBoden 20cmFeuchteLuftdruckNiederschlagEvapotranspirationWindWindböenWindrichtungSolarstrahlungUV-IndexSonne?Uhrzeit
Diagramm IconDiagramm IconDiagramm IconDiagramm IconDiagramm IconDiagramm IconDiagramm IconDiagramm IconDiagramm IconDiagramm IconDiagramm IconDiagramm IconDiagramm Icon
00:002,2 °C 6,1 °C 6,7 °C 93 % 1024,6 hPa 0,0 mm - 1,4 km/h 7,9 km/h SSO 0,0 W/qm 0,0 nein 00:00
00:052,2 °C 6,1 °C 6,7 °C 93 % 1024,6 hPa 0,0 mm 0,0 mm 1,4 km/h 9,7 km/h SO 0,0 W/qm 0,0 nein 00:05
00:102,2 °C 6,1 °C 6,7 °C 93 % 1024,6 hPa 0,0 mm 0,0 mm 1,4 km/h 9,7 km/h SSO 0,0 W/qm 0,0 nein 00:10
00:152,2 °C 6,1 °C 6,7 °C 92 % 1024,6 hPa 0,0 mm - 1,4 km/h 9,7 km/h SSO 0,0 W/qm 0,0 nein 00:15
00:202,2 °C 6,1 °C 6,7 °C 93 % 1024,5 hPa 0,0 mm - 1,4 km/h 7,9 km/h SSO 0,0 W/qm 0,0 nein 00:20
00:252,2 °C 6,1 °C 6,7 °C 93 % 1024,5 hPa 0,0 mm - 1,4 km/h 7,9 km/h S 0,0 W/qm 0,0 nein 00:25
00:302,2 °C 6,1 °C 6,7 °C 93 % 1024,5 hPa 0,0 mm - 1,4 km/h 7,9 km/h SSO 0,0 W/qm 0,0 nein 00:30
00:352,1 °C 6,1 °C 6,7 °C 93 % 1024,5 hPa 0,0 mm - 1,4 km/h 9,7 km/h S 0,0 W/qm 0,0 nein 00:35
00:402,1 °C 6,1 °C 6,7 °C 93 % 1024,4 hPa 0,0 mm - 1,4 km/h 9,7 km/h S 0,0 W/qm 0,0 nein 00:40
00:452,1 °C 6,1 °C 6,7 °C 93 % 1024,4 hPa 0,0 mm - 3,2 km/h 9,7 km/h S 0,0 W/qm 0,0 nein 00:45
00:502,1 °C 6,1 °C 6,7 °C 93 % 1024,3 hPa 0,0 mm - 3,2 km/h 7,9 km/h SSO 0,0 W/qm 0,0 nein 00:50
00:552,1 °C 6,1 °C 6,7 °C 93 % 1024,2 hPa 0,0 mm - 3,2 km/h 9,7 km/h SO 0,0 W/qm 0,0 nein 00:55
01:002,1 °C 6,1 °C 6,7 °C 93 % 1024,2 hPa 0,0 mm - 1,4 km/h 9,7 km/h S 0,0 W/qm 0,0 nein 01:00
01:052,1 °C 6,1 °C 6,7 °C 93 % 1024,2 hPa 0,0 mm 0,0 mm 3,2 km/h 9,7 km/h S 0,0 W/qm 0,0 nein 01:05
01:102,1 °C 6,1 °C 6,7 °C 93 % 1024,2 hPa 0,0 mm 0,0 mm 3,2 km/h 7,9 km/h S 0,0 W/qm 0,0 nein 01:10
01:152,1 °C 6,1 °C 6,7 °C 93 % 1024,0 hPa 0,0 mm - 1,4 km/h 7,9 km/h S 0,0 W/qm 0,0 nein 01:15
01:202,1 °C 6,1 °C 6,7 °C 93 % 1024,1 hPa 0,0 mm - 0,0 km/h 7,9 km/h S 0,0 W/qm 0,0 nein 01:20
01:252,1 °C 6,1 °C 6,7 °C 93 % 1024,0 hPa 0,0 mm - 1,4 km/h 7,9 km/h SSO 0,0 W/qm 0,0 nein 01:25
01:302,1 °C 6,1 °C 6,7 °C 93 % 1023,9 hPa 0,0 mm - 1,4 km/h 4,7 km/h SSO 0,0 W/qm 0,0 nein 01:30
01:352,1 °C 6,1 °C 6,7 °C 93 % 1024,0 hPa 0,0 mm - 1,4 km/h 6,5 km/h SSO 0,0 W/qm 0,0 nein 01:35
01:402,1 °C 6,1 °C 6,7 °C 93 % 1024,0 hPa 0,0 mm - 3,2 km/h 6,5 km/h SO 0,0 W/qm 0,0 nein 01:40
01:452,1 °C 6,1 °C 6,7 °C 93 % 1024,0 hPa 0,0 mm - 1,4 km/h 7,9 km/h SSO 0,0 W/qm 0,0 nein 01:45
01:502,1 °C 6,1 °C 6,7 °C 93 % 1023,9 hPa 0,0 mm - 1,4 km/h 7,9 km/h SSO 0,0 W/qm 0,0 nein 01:50
01:552,0 °C 6,1 °C 6,7 °C 93 % 1023,8 hPa 0,0 mm - 3,2 km/h 7,9 km/h SW 0,0 W/qm 0,0 nein 01:55
UhrzeitTemperaturBoden 10cmBoden 20cmFeuchteLuftdruckNiederschlagEvapotranspirationWindWindböenWindrichtungSolarstrahlungUV-IndexSonne?Uhrzeit
02:002,0 °C 6,1 °C 6,7 °C 93 % 1023,8 hPa 0,0 mm - 3,2 km/h 7,9 km/h SSW 0,0 W/qm 0,0 nein 02:00
02:052,0 °C 6,1 °C 6,7 °C 93 % 1023,7 hPa 0,0 mm 0,0 mm 3,2 km/h 7,9 km/h SO 0,0 W/qm 0,0 nein 02:05
02:101,9 °C 6,1 °C 6,7 °C 93 % 1023,7 hPa 0,0 mm 0,0 mm 3,2 km/h 7,9 km/h SO 0,0 W/qm 0,0 nein 02:10
02:151,9 °C 6,1 °C 6,7 °C 93 % 1023,7 hPa 0,0 mm - 3,2 km/h 7,9 km/h SW 0,0 W/qm 0,0 nein 02:15
02:201,9 °C 6,1 °C 6,7 °C 93 % 1023,7 hPa 0,0 mm - 3,2 km/h 9,7 km/h S 0,0 W/qm 0,0 nein 02:20
02:251,9 °C 6,1 °C 6,7 °C 93 % 1023,7 hPa 0,0 mm - 3,2 km/h 9,7 km/h SSO 0,0 W/qm 0,0 nein 02:25
02:301,9 °C 6,1 °C 6,7 °C 93 % 1023,7 hPa 0,0 mm - 3,2 km/h 9,7 km/h SSO 0,0 W/qm 0,0 nein 02:30
02:351,9 °C 6,1 °C 6,7 °C 93 % 1023,7 hPa 0,0 mm - 3,2 km/h 9,7 km/h SSO 0,0 W/qm 0,0 nein 02:35
02:401,9 °C 6,1 °C 6,7 °C 93 % 1023,7 hPa 0,0 mm - 3,2 km/h 9,7 km/h SSO 0,0 W/qm 0,0 nein 02:40
02:451,9 °C 6,1 °C 6,7 °C 93 % 1023,6 hPa 0,0 mm - 3,2 km/h 7,9 km/h WSW 0,0 W/qm 0,0 nein 02:45
02:501,9 °C 6,1 °C 6,7 °C 93 % 1023,6 hPa 0,0 mm - 1,4 km/h 7,9 km/h S 0,0 W/qm 0,0 nein 02:50
02:551,9 °C 6,1 °C 6,7 °C 93 % 1023,5 hPa 0,0 mm - 1,4 km/h 7,9 km/h SSO 0,0 W/qm 0,0 nein 02:55
03:001,9 °C 6,1 °C 6,7 °C 93 % 1023,5 hPa 0,0 mm - 1,4 km/h 7,9 km/h SSO 0,0 W/qm 0,0 nein 03:00
03:051,9 °C 5,6 °C 6,7 °C 93 % 1023,5 hPa 0,0 mm 0,0 mm 3,2 km/h 7,9 km/h SSO 0,0 W/qm 0,0 nein 03:05
03:101,9 °C 5,6 °C 6,7 °C 93 % 1023,4 hPa 0,0 mm 0,0 mm 1,4 km/h 9,7 km/h S 0,0 W/qm 0,0 nein 03:10
03:151,8 °C 5,6 °C 6,7 °C 93 % 1023,4 hPa 0,0 mm - 1,4 km/h 9,7 km/h S 0,0 W/qm 0,0 nein 03:15
03:201,8 °C 5,6 °C 6,7 °C 93 % 1023,4 hPa 0,0 mm - 1,4 km/h 9,7 km/h S 0,0 W/qm 0,0 nein 03:20
03:251,8 °C 5,6 °C 6,7 °C 93 % 1023,4 hPa 0,0 mm - 1,4 km/h 7,9 km/h S 0,0 W/qm 0,0 nein 03:25
03:301,8 °C 5,6 °C 6,7 °C 93 % 1023,4 hPa 0,0 mm - 3,2 km/h 7,9 km/h SW 0,0 W/qm 0,0 nein 03:30
03:351,8 °C 5,6 °C 6,7 °C 93 % 1023,4 hPa 0,0 mm - 1,4 km/h 6,5 km/h SSO 0,0 W/qm 0,0 nein 03:35
03:401,8 °C 5,6 °C 6,7 °C 93 % 1023,4 hPa 0,0 mm - 1,4 km/h 6,5 km/h S 0,0 W/qm 0,0 nein 03:40
03:451,8 °C 5,6 °C 6,7 °C 93 % 1023,3 hPa 0,0 mm - 1,4 km/h 6,5 km/h SSW 0,0 W/qm 0,0 nein 03:45
03:501,8 °C 5,6 °C 6,7 °C 93 % 1023,3 hPa 0,0 mm - 3,2 km/h 6,5 km/h S 0,0 W/qm 0,0 nein 03:50
03:551,8 °C 5,6 °C 6,7 °C 93 % 1023,2 hPa 0,0 mm - 3,2 km/h 7,9 km/h S 0,0 W/qm 0,0 nein 03:55
UhrzeitTemperaturBoden 10cmBoden 20cmFeuchteLuftdruckNiederschlagEvapotranspirationWindWindböenWindrichtungSolarstrahlungUV-IndexSonne?Uhrzeit
04:001,8 °C 5,6 °C 6,7 °C 93 % 1023,3 hPa 0,0 mm - 1,4 km/h 7,9 km/h SSO 0,0 W/qm 0,0 nein 04:00
04:051,7 °C 5,6 °C 6,7 °C 93 % 1023,4 hPa 0,0 mm 0,0 mm 3,2 km/h 7,9 km/h S 0,0 W/qm 0,0 nein 04:05
04:101,7 °C 5,6 °C 6,7 °C 93 % 1023,3 hPa 0,0 mm 0,0 mm 4,7 km/h 7,9 km/h SSW 0,0 W/qm 0,0 nein 04:10
04:151,7 °C 5,6 °C 6,7 °C 93 % 1023,2 hPa 0,0 mm - 6,5 km/h 11,2 km/h S 0,0 W/qm 0,0 nein 04:15
04:201,6 °C 5,6 °C 6,7 °C 93 % 1023,3 hPa 0,0 mm - 6,5 km/h 13,0 km/h SSW 0,0 W/qm 0,0 nein 04:20
04:251,6 °C 5,6 °C 6,7 °C 93 % 1023,2 hPa 0,0 mm - 6,5 km/h 13,0 km/h SSW 0,0 W/qm 0,0 nein 04:25
04:301,6 °C 5,6 °C 6,7 °C 93 % 1023,2 hPa 0,0 mm - 4,7 km/h 11,2 km/h S 0,0 W/qm 0,0 nein 04:30
04:351,6 °C 5,6 °C 6,7 °C 93 % 1023,2 hPa 0,0 mm - 4,7 km/h 11,2 km/h S 0,0 W/qm 0,0 nein 04:35
04:401,6 °C 5,6 °C 6,7 °C 93 % 1023,2 hPa 0,0 mm - 4,7 km/h 11,2 km/h S 0,0 W/qm 0,0 nein 04:40
04:451,6 °C 5,6 °C 6,7 °C 93 % 1023,2 hPa 0,0 mm - 4,7 km/h 11,2 km/h SSW 0,0 W/qm 0,0 nein 04:45
04:501,6 °C 5,6 °C 6,7 °C 93 % 1023,2 hPa 0,0 mm - 4,7 km/h 11,2 km/h SSW 0,0 W/qm 0,0 nein 04:50
04:551,6 °C 5,6 °C 6,7 °C 93 % 1023,1 hPa 0,0 mm - 3,2 km/h 11,2 km/h SSW 0,0 W/qm 0,0 nein 04:55
05:001,6 °C 5,6 °C 6,7 °C 93 % 1023,2 hPa 0,0 mm - 1,4 km/h 11,2 km/h S 0,0 W/qm 0,0 nein 05:00
05:051,6 °C 5,6 °C 6,7 °C 93 % 1023,2 hPa 0,0 mm 0,0 mm 1,4 km/h 9,7 km/h S 0,0 W/qm 0,0 nein 05:05
05:101,6 °C 5,6 °C 6,7 °C 93 % 1023,2 hPa 0,0 mm 0,0 mm 1,4 km/h 7,9 km/h S 0,0 W/qm 0,0 nein 05:10
05:151,5 °C 5,6 °C 6,7 °C 93 % 1023,2 hPa 0,0 mm - 1,4 km/h 6,5 km/h SSO 0,0 W/qm 0,0 nein 05:15
05:201,5 °C 5,6 °C 6,7 °C 93 % 1023,2 hPa 0,0 mm - 3,2 km/h 6,5 km/h SSO 0,0 W/qm 0,0 nein 05:20
05:251,5 °C 5,6 °C 6,7 °C 93 % 1023,2 hPa 0,0 mm - 3,2 km/h 7,9 km/h SSO 0,0 W/qm 0,0 nein 05:25
05:301,5 °C 5,6 °C 6,7 °C 93 % 1023,3 hPa 0,0 mm - 1,4 km/h 7,9 km/h S 0,0 W/qm 0,0 nein 05:30
05:351,5 °C 5,6 °C 6,7 °C 93 % 1023,3 hPa 0,0 mm - 1,4 km/h 7,9 km/h S 0,0 W/qm 0,0 nein 05:35
05:401,4 °C 5,6 °C 6,7 °C 93 % 1023,4 hPa 0,0 mm - 1,4 km/h 7,9 km/h SSO 0,0 W/qm 0,0 nein 05:40
05:451,4 °C 5,6 °C 6,7 °C 93 % 1023,4 hPa 0,0 mm - 1,4 km/h 7,9 km/h SSW 0,0 W/qm 0,0 nein 05:45
05:501,4 °C 5,6 °C 6,7 °C 93 % 1023,5 hPa 0,0 mm - 3,2 km/h 7,9 km/h S 0,0 W/qm 0,0 nein 05:50
05:551,3 °C 5,6 °C 6,7 °C 93 % 1023,6 hPa 0,0 mm - 4,7 km/h 7,9 km/h SSW 0,0 W/qm 0,0 nein 05:55
UhrzeitTemperaturBoden 10cmBoden 20cmFeuchteLuftdruckNiederschlagEvapotranspirationWindWindböenWindrichtungSolarstrahlungUV-IndexSonne?Uhrzeit
06:001,3 °C 5,6 °C 6,7 °C 94 % 1023,7 hPa 0,0 mm - 4,7 km/h 9,7 km/h SSO 0,0 W/qm 0,0 nein 06:00
06:051,3 °C 5,6 °C 6,7 °C 94 % 1023,7 hPa 0,0 mm 0,0 mm 4,7 km/h 11,2 km/h S 0,0 W/qm 0,0 nein 06:05
06:101,3 °C 5,6 °C 6,7 °C 94 % 1023,7 hPa 0,0 mm 0,0 mm 3,2 km/h 11,2 km/h SSO 0,0 W/qm 0,0 nein 06:10
06:151,3 °C 5,6 °C 6,7 °C 94 % 1023,8 hPa 0,0 mm - 1,4 km/h 11,2 km/h SO 0,0 W/qm 0,0 nein 06:15
06:201,3 °C 5,6 °C 6,7 °C 94 % 1023,8 hPa 0,0 mm - 1,4 km/h 11,2 km/h SSO 0,0 W/qm 0,0 nein 06:20
06:251,3 °C 5,6 °C 6,7 °C 94 % 1023,8 hPa 0,0 mm - 3,2 km/h 7,9 km/h SO 0,0 W/qm 0,0 nein 06:25
06:301,3 °C 5,6 °C 6,7 °C 94 % 1023,9 hPa 0,0 mm - 1,4 km/h 7,9 km/h SSO 0,0 W/qm 0,0 nein 06:30
06:351,3 °C 5,6 °C 6,7 °C 94 % 1023,9 hPa 0,0 mm - 1,4 km/h 7,9 km/h SSO 0,0 W/qm 0,0 nein 06:35
06:401,2 °C 5,6 °C 6,7 °C 94 % 1023,8 hPa 0,0 mm - 1,4 km/h 6,5 km/h S 0,0 W/qm 0,0 nein 06:40
06:451,3 °C 5,6 °C 6,7 °C 94 % 1023,8 hPa 0,0 mm - 3,2 km/h 7,9 km/h SW 0,0 W/qm 0,0 nein 06:45
06:501,3 °C 5,6 °C 6,7 °C 94 % 1023,8 hPa 0,0 mm - 4,7 km/h 7,9 km/h S 0,0 W/qm 0,0 nein 06:50
06:551,2 °C 5,6 °C 6,7 °C 94 % 1023,8 hPa 0,0 mm - 6,5 km/h 11,2 km/h S 0,0 W/qm 0,0 nein 06:55
07:001,2 °C 5,6 °C 6,7 °C 94 % 1023,8 hPa 0,0 mm - 4,7 km/h 11,2 km/h S 0,0 W/qm 0,0 nein 07:00
07:051,2 °C 5,6 °C 6,7 °C 94 % 1023,8 hPa 0,0 mm 0,0 mm 4,7 km/h 11,2 km/h S 0,0 W/qm 0,0 nein 07:05
07:101,2 °C 5,6 °C 6,7 °C 94 % 1023,8 hPa 0,0 mm 0,0 mm 4,7 km/h 11,2 km/h SSW 0,0 W/qm 0,0 nein 07:10
07:151,2 °C 5,6 °C 6,7 °C 94 % 1023,9 hPa 0,0 mm - 4,7 km/h 11,2 km/h SSW 0,0 W/qm 0,0 nein 07:15
07:201,2 °C 5,6 °C 6,7 °C 94 % 1023,9 hPa 0,0 mm - 6,5 km/h 11,2 km/h S 0,0 W/qm 0,0 nein 07:20
07:251,2 °C 5,6 °C 6,7 °C 94 % 1023,9 hPa 0,0 mm - 6,5 km/h 11,2 km/h S 0,0 W/qm 0,0 nein 07:25
07:301,2 °C 5,6 °C 6,7 °C 94 % 1023,9 hPa 0,0 mm - 6,5 km/h 11,2 km/h SSW 0,0 W/qm 0,0 nein 07:30
07:351,1 °C 5,6 °C 6,7 °C 94 % 1024,0 hPa 0,0 mm - 6,5 km/h 11,2 km/h S 0,0 W/qm 0,0 nein 07:35
07:401,1 °C 5,6 °C 6,7 °C 94 % 1024,0 hPa 0,0 mm - 4,7 km/h 11,2 km/h S 0,0 W/qm 0,0 nein 07:40
07:451,1 °C 5,6 °C 6,7 °C 94 % 1024,0 hPa 0,0 mm - 6,5 km/h 11,2 km/h SSO 0,0 W/qm 0,0 nein 07:45
07:501,1 °C 5,6 °C 6,7 °C 94 % 1024,0 hPa 0,0 mm - 6,5 km/h 13,0 km/h S 0,0 W/qm 0,0 nein 07:50
07:551,1 °C 5,6 °C 6,7 °C 94 % 1024,0 hPa 0,0 mm - 3,2 km/h 13,0 km/h SSO 5,0 W/qm 0,0 nein 07:55
UhrzeitTemperaturBoden 10cmBoden 20cmFeuchteLuftdruckNiederschlagEvapotranspirationWindWindböenWindrichtungSolarstrahlungUV-IndexSonne?Uhrzeit
08:001,1 °C 5,6 °C 6,7 °C 94 % 1024,1 hPa 0,0 mm - 3,2 km/h 13,0 km/h S 5,0 W/qm 0,0 nein 08:00
08:051,1 °C 5,6 °C 6,7 °C 94 % 1024,0 hPa 0,0 mm 0,0 mm 3,2 km/h 11,2 km/h S 7,0 W/qm 0,0 nein 08:05
08:101,1 °C 5,6 °C 6,7 °C 94 % 1024,1 hPa 0,0 mm 0,0 mm 3,2 km/h 11,2 km/h S 7,0 W/qm 0,0 nein 08:10
08:151,0 °C 5,6 °C 6,7 °C 94 % 1024,1 hPa 0,0 mm - 3,2 km/h 11,2 km/h SSO 9,0 W/qm 0,0 nein 08:15
08:201,1 °C 5,6 °C 6,7 °C 94 % 1024,1 hPa 0,0 mm - 1,4 km/h 7,9 km/h SO 11,0 W/qm 0,0 nein 08:20
08:251,0 °C 5,6 °C 6,7 °C 94 % 1024,2 hPa 0,0 mm - 1,4 km/h 7,9 km/h SSO 12,0 W/qm 0,0 nein 08:25
08:301,0 °C 5,6 °C 6,7 °C 94 % 1024,2 hPa 0,0 mm - 3,2 km/h 6,5 km/h OSO 12,0 W/qm 0,0 nein 08:30
08:351,0 °C 5,6 °C 6,7 °C 94 % 1024,3 hPa 0,0 mm - 3,2 km/h 11,2 km/h SO 14,0 W/qm 0,0 nein 08:35
08:400,9 °C 5,6 °C 6,7 °C 94 % 1024,2 hPa 0,0 mm - 3,2 km/h 13,0 km/h SSO 18,0 W/qm 0,0 nein 08:40
08:450,9 °C 5,6 °C 6,7 °C 94 % 1024,3 hPa 0,0 mm - 3,2 km/h 13,0 km/h SO 19,0 W/qm 0,0 nein 08:45
08:500,9 °C 5,6 °C 6,7 °C 94 % 1024,3 hPa 0,0 mm - 3,2 km/h 13,0 km/h S 18,0 W/qm 0,0 nein 08:50
08:550,9 °C 5,6 °C 6,7 °C 94 % 1024,2 hPa 0,0 mm - 3,2 km/h 11,2 km/h SO 21,0 W/qm 0,0 nein 08:55
09:000,9 °C 5,6 °C 6,7 °C 94 % 1024,3 hPa 0,0 mm - 3,2 km/h 11,2 km/h SSO 23,0 W/qm 0,0 nein 09:00
09:050,9 °C 5,6 °C 6,7 °C 94 % 1024,5 hPa 0,0 mm 0,0 mm 3,2 km/h 11,2 km/h SO 25,0 W/qm 0,0 nein 09:05
09:100,9 °C 5,6 °C 6,7 °C 94 % 1024,5 hPa 0,0 mm 0,0 mm 3,2 km/h 7,9 km/h SO 26,0 W/qm 0,0 nein 09:10
09:150,9 °C 5,6 °C 6,7 °C 94 % 1024,5 hPa 0,0 mm - 1,4 km/h 9,7 km/h SSO 26,0 W/qm 0,0 nein 09:15
09:200,9 °C 5,6 °C 6,7 °C 94 % 1024,5 hPa 0,0 mm - 3,2 km/h 11,2 km/h SO 32,0 W/qm 0,0 nein 09:20
09:250,9 °C 5,6 °C 6,7 °C 94 % 1024,6 hPa 0,0 mm - 3,2 km/h 11,2 km/h SO 32,0 W/qm 0,0 nein 09:25
09:300,9 °C 5,6 °C 6,7 °C 94 % 1024,5 hPa 0,0 mm - 3,2 km/h 11,2 km/h OSO 35,0 W/qm 0,0 nein 09:30
09:350,9 °C 5,6 °C 6,7 °C 94 % 1024,6 hPa 0,0 mm - 3,2 km/h 11,2 km/h SSO 37,0 W/qm 0,0 nein 09:35
09:400,8 °C 5,6 °C 6,7 °C 94 % 1024,5 hPa 0,0 mm - 3,2 km/h 9,7 km/h SSO 37,0 W/qm 0,0 nein 09:40
09:450,8 °C 5,6 °C 6,7 °C 94 % 1024,5 hPa 0,0 mm - 1,4 km/h 9,7 km/h SO 40,0 W/qm 0,0 nein 09:45
09:500,9 °C 5,6 °C 6,7 °C 94 % 1024,5 hPa 0,0 mm - 1,4 km/h 7,9 km/h SSO 40,0 W/qm 0,0 nein 09:50
09:550,9 °C 5,6 °C 6,7 °C 94 % 1024,5 hPa 0,0 mm - 3,2 km/h 7,9 km/h S 40,0 W/qm 0,0 nein 09:55
UhrzeitTemperaturBoden 10cmBoden 20cmFeuchteLuftdruckNiederschlagEvapotranspirationWindWindböenWindrichtungSolarstrahlungUV-IndexSonne?Uhrzeit
10:000,9 °C 5,6 °C 6,7 °C 94 % 1024,6 hPa 0,0 mm - 3,2 km/h 7,9 km/h SO 42,0 W/qm 0,0 nein 10:00
10:050,9 °C 5,6 °C 6,7 °C 94 % 1024,6 hPa 0,0 mm 0,0 mm 1,4 km/h 7,9 km/h SSO 44,0 W/qm 0,0 nein 10:05
10:100,9 °C 5,6 °C 6,7 °C 94 % 1024,5 hPa 0,0 mm 0,0 mm 1,4 km/h 9,7 km/h SO 49,0 W/qm 0,0 nein 10:10
10:150,9 °C 5,6 °C 6,7 °C 94 % 1024,6 hPa 0,0 mm - 1,4 km/h 9,7 km/h SO 49,0 W/qm 0,0 nein 10:15
10:200,9 °C 5,6 °C 6,7 °C 94 % 1024,6 hPa 0,0 mm - 1,4 km/h 9,7 km/h SO 49,0 W/qm 0,0 nein 10:20
10:250,9 °C 5,6 °C 6,7 °C 94 % 1024,6 hPa 0,0 mm - 3,2 km/h 6,5 km/h SSO 51,0 W/qm 0,0 nein 10:25
10:300,9 °C 5,6 °C 6,7 °C 94 % 1024,7 hPa 0,0 mm - 1,4 km/h 9,7 km/h SO 54,0 W/qm 0,0 nein 10:30
10:350,9 °C 5,6 °C 6,7 °C 94 % 1024,7 hPa 0,0 mm - 1,4 km/h 9,7 km/h SO 54,0 W/qm 0,0 nein 10:35
10:401,0 °C 5,6 °C 6,7 °C 94 % 1024,6 hPa 0,0 mm - 1,4 km/h 7,9 km/h SSO 53,0 W/qm 0,0 nein 10:40
10:451,0 °C 5,6 °C 6,7 °C 94 % 1024,5 hPa 0,0 mm - 1,4 km/h 6,5 km/h SO 51,0 W/qm 0,0 nein 10:45
10:501,1 °C 5,6 °C 6,7 °C 94 % 1024,6 hPa 0,0 mm - 1,4 km/h 6,5 km/h SSO 60,0 W/qm 0,0 nein 10:50
10:551,1 °C 5,6 °C 6,7 °C 94 % 1024,6 hPa 0,0 mm - 3,2 km/h 6,5 km/h S 60,0 W/qm 0,0 nein 10:55
11:001,1 °C 5,6 °C 6,7 °C 94 % 1024,5 hPa 0,0 mm - 3,2 km/h 9,7 km/h SSO 60,0 W/qm 0,0 nein 11:00
11:051,1 °C 5,6 °C 6,7 °C 94 % 1024,5 hPa 0,0 mm 0,1 mm 1,4 km/h 9,7 km/h SO 60,0 W/qm 0,0 nein 11:05
11:101,1 °C 5,6 °C 6,7 °C 94 % 1024,4 hPa 0,0 mm 0,1 mm 3,2 km/h 7,9 km/h S 65,0 W/qm 0,0 nein 11:10
11:151,1 °C 5,6 °C 6,7 °C 94 % 1024,3 hPa 0,0 mm - 3,2 km/h 7,9 km/h SSO 74,0 W/qm 0,0 nein 11:15
11:201,1 °C 5,6 °C 6,7 °C 94 % 1024,2 hPa 0,0 mm - 3,2 km/h 13,0 km/h SSO 83,0 W/qm 0,0 nein 11:20
11:251,1 °C 5,6 °C 6,7 °C 93 % 1024,2 hPa 0,0 mm - 3,2 km/h 13,0 km/h SSW 83,0 W/qm 0,0 nein 11:25
11:301,2 °C 5,6 °C 6,7 °C 93 % 1024,2 hPa 0,0 mm - 4,7 km/h 13,0 km/h SW 76,0 W/qm 0,0 nein 11:30
11:351,2 °C 5,6 °C 6,7 °C 93 % 1024,1 hPa 0,0 mm - 3,2 km/h 11,2 km/h SSW 79,0 W/qm 0,0 nein 11:35
11:401,3 °C 5,6 °C 6,7 °C 93 % 1024,2 hPa 0,0 mm - 3,2 km/h 11,2 km/h SO 83,0 W/qm 0,0 nein 11:40
11:451,3 °C 5,6 °C 6,7 °C 93 % 1024,1 hPa 0,0 mm - 3,2 km/h 11,2 km/h SSO 76,0 W/qm 0,0 nein 11:45
11:501,3 °C 5,6 °C 6,7 °C 93 % 1024,0 hPa 0,0 mm - 1,4 km/h 9,7 km/h SSO 77,0 W/qm 0,0 nein 11:50
11:551,3 °C 5,6 °C 6,7 °C 93 % 1024,1 hPa 0,0 mm - 3,2 km/h 9,7 km/h SSW 83,0 W/qm 0,0 nein 11:55
UhrzeitTemperaturBoden 10cmBoden 20cmFeuchteLuftdruckNiederschlagEvapotranspirationWindWindböenWindrichtungSolarstrahlungUV-IndexSonne?Uhrzeit
12:001,3 °C 5,6 °C 6,7 °C 93 % 1024,1 hPa 0,0 mm - 3,2 km/h 11,2 km/h SSO 83,0 W/qm 0,0 nein 12:00
12:051,2 °C 5,6 °C 6,7 °C 93 % 1024,1 hPa 0,0 mm 0,1 mm 3,2 km/h 11,2 km/h SSO 81,0 W/qm 0,0 nein 12:05
12:101,2 °C 5,6 °C 6,7 °C 93 % 1024,0 hPa 0,0 mm 0,1 mm 3,2 km/h 13,0 km/h SO 90,0 W/qm 0,0 nein 12:10
12:151,2 °C 5,6 °C 6,7 °C 93 % 1024,0 hPa 0,0 mm - 3,2 km/h 13,0 km/h SO 88,0 W/qm 0,0 nein 12:15
12:201,2 °C 5,6 °C 6,7 °C 93 % 1024,0 hPa 0,0 mm - 3,2 km/h 13,0 km/h SO 86,0 W/qm 0,0 nein 12:20
12:251,2 °C 5,6 °C 6,7 °C 93 % 1024,0 hPa 0,0 mm - 3,2 km/h 13,0 km/h SO 86,0 W/qm 0,0 nein 12:25
12:301,2 °C 5,6 °C 6,7 °C 93 % 1023,9 hPa 0,0 mm - 3,2 km/h 13,0 km/h SSW 86,0 W/qm 0,0 nein 12:30
12:351,3 °C 5,6 °C 6,7 °C 93 % 1023,8 hPa 0,0 mm - 3,2 km/h 11,2 km/h SSO 93,0 W/qm 0,0 nein 12:35
12:401,4 °C 5,6 °C 6,7 °C 93 % 1023,9 hPa 0,0 mm - 3,2 km/h 13,0 km/h S 93,0 W/qm 0,0 nein 12:40
12:451,5 °C 5,6 °C 6,7 °C 93 % 1023,8 hPa 0,0 mm - 4,7 km/h 13,0 km/h SO 86,0 W/qm 0,0 nein 12:45
12:501,4 °C 5,6 °C 6,7 °C 93 % 1023,8 hPa 0,0 mm - 3,2 km/h 13,0 km/h SO 83,0 W/qm 0,0 nein 12:50
12:551,4 °C 5,6 °C 6,7 °C 93 % 1023,8 hPa 0,0 mm - 3,2 km/h 13,0 km/h SO 81,0 W/qm 0,0 nein 12:55
13:001,5 °C 5,6 °C 6,7 °C 92 % 1023,7 hPa 0,0 mm - 3,2 km/h 13,0 km/h SSO 77,0 W/qm 0,0 nein 13:00
13:051,5 °C 5,6 °C 6,7 °C 92 % 1023,7 hPa 0,0 mm 0,1 mm 3,2 km/h 11,2 km/h SO 77,0 W/qm 0,0 nein 13:05
13:101,6 °C 5,6 °C 6,7 °C 92 % 1023,7 hPa 0,0 mm 0,1 mm 3,2 km/h 11,2 km/h S 76,0 W/qm 0,0 nein 13:10
13:151,5 °C 5,6 °C 6,7 °C 92 % 1023,6 hPa 0,0 mm - 3,2 km/h 11,2 km/h SSO 74,0 W/qm 0,0 nein 13:15
13:201,5 °C 5,6 °C 6,7 °C 92 % 1023,6 hPa 0,0 mm - 3,2 km/h 11,2 km/h SSO 74,0 W/qm 0,0 nein 13:20
13:251,6 °C 5,6 °C 6,7 °C 92 % 1023,7 hPa 0,0 mm - 3,2 km/h 9,7 km/h SSO 74,0 W/qm 0,0 nein 13:25
13:301,6 °C 5,6 °C 6,7 °C 92 % 1023,7 hPa 0,0 mm - 3,2 km/h 9,7 km/h S 67,0 W/qm 0,0 nein 13:30
13:351,6 °C 5,6 °C 6,7 °C 92 % 1023,7 hPa 0,0 mm - 1,4 km/h 9,7 km/h SSO 67,0 W/qm 0,0 nein 13:35
13:401,7 °C 5,6 °C 6,7 °C 92 % 1023,7 hPa 0,0 mm - 1,4 km/h 7,9 km/h S 63,0 W/qm 0,0 nein 13:40
13:451,7 °C 5,6 °C 6,7 °C 92 % 1023,6 hPa 0,0 mm - 1,4 km/h 7,9 km/h SSO 62,0 W/qm 0,0 nein 13:45
13:501,7 °C 5,6 °C 6,7 °C 92 % 1023,6 hPa 0,0 mm - 1,4 km/h 9,7 km/h SO 60,0 W/qm 0,0 nein 13:50
13:551,7 °C 5,6 °C 6,7 °C 92 % 1023,7 hPa 0,0 mm - 3,2 km/h 9,7 km/h SSO 60,0 W/qm 0,0 nein 13:55
UhrzeitTemperaturBoden 10cmBoden 20cmFeuchteLuftdruckNiederschlagEvapotranspirationWindWindböenWindrichtungSolarstrahlungUV-IndexSonne?Uhrzeit
14:001,7 °C 5,6 °C 6,7 °C 92 % 1023,6 hPa 0,0 mm - 1,4 km/h 9,7 km/h SSO 56,0 W/qm 0,0 nein 14:00
15:10- - - - - 0,0 mm - - 7,9 km/h - - - nein 15:10
15:151,8 °C 5,6 °C 6,7 °C 91 % 1023,5 hPa 0,0 mm - 3,2 km/h 7,9 km/h SSO 23,0 W/qm 0,0 nein 15:15
15:201,8 °C 5,6 °C 6,7 °C 92 % 1023,5 hPa 0,0 mm - 3,2 km/h 7,9 km/h OSO 21,0 W/qm 0,0 nein 15:20
15:251,8 °C 5,6 °C 6,7 °C 92 % 1023,5 hPa 0,0 mm - 3,2 km/h 9,7 km/h SSO 19,0 W/qm 0,0 nein 15:25
15:301,8 °C 5,6 °C 6,7 °C 92 % 1023,5 hPa 0,0 mm - 3,2 km/h 9,7 km/h S 16,0 W/qm 0,0 nein 15:30
15:351,7 °C 5,6 °C 6,7 °C 92 % 1023,7 hPa 0,0 mm - 3,2 km/h 11,2 km/h S 16,0 W/qm 0,0 nein 15:35
15:401,7 °C 5,6 °C 6,7 °C 92 % 1023,7 hPa 0,0 mm - 1,4 km/h 11,2 km/h S 14,0 W/qm 0,0 nein 15:40
15:451,7 °C 5,6 °C 6,7 °C 92 % 1023,7 hPa 0,0 mm - 1,4 km/h 9,7 km/h S 12,0 W/qm 0,0 nein 15:45
15:501,7 °C 5,6 °C 6,7 °C 92 % 1023,7 hPa 0,0 mm - 1,4 km/h 9,7 km/h SSO 11,0 W/qm 0,0 nein 15:50
15:551,7 °C 5,6 °C 6,7 °C 92 % 1023,7 hPa 0,0 mm - 1,4 km/h 9,7 km/h SSO 9,0 W/qm 0,0 nein 15:55
16:001,7 °C 5,6 °C 6,7 °C 91 % 1023,7 hPa 0,0 mm - 3,2 km/h 9,7 km/h SSO 7,0 W/qm 0,0 nein 16:00
16:051,7 °C 5,6 °C 6,7 °C 91 % 1023,8 hPa 0,0 mm 0,2 mm 4,7 km/h 9,7 km/h SO 7,0 W/qm 0,0 nein 16:05
16:101,7 °C 5,6 °C 6,7 °C 91 % 1023,8 hPa 0,0 mm 0,2 mm 3,2 km/h 11,2 km/h SSO 5,0 W/qm 0,0 nein 16:10
16:151,7 °C 5,6 °C 6,7 °C 92 % 1023,8 hPa 0,0 mm - 3,2 km/h 11,2 km/h SSW 5,0 W/qm 0,0 nein 16:15
16:201,7 °C 5,6 °C 6,7 °C 92 % 1023,8 hPa 0,0 mm - 4,7 km/h 11,2 km/h S 0,0 W/qm 0,0 nein 16:20
16:251,7 °C 5,6 °C 6,7 °C 92 % 1023,8 hPa 0,0 mm - 3,2 km/h 9,7 km/h S 0,0 W/qm 0,0 nein 16:25
16:301,6 °C 5,6 °C 6,7 °C 92 % 1023,8 hPa 0,0 mm - 3,2 km/h 9,7 km/h SSO 0,0 W/qm 0,0 nein 16:30
16:351,7 °C 5,6 °C 6,7 °C 92 % 1023,8 hPa 0,0 mm - 3,2 km/h 9,7 km/h S 0,0 W/qm 0,0 nein 16:35
16:401,7 °C 5,6 °C 6,7 °C 92 % 1023,9 hPa 0,0 mm - 1,4 km/h 9,7 km/h S 0,0 W/qm 0,0 nein 16:40
16:451,7 °C 5,6 °C 6,7 °C 92 % 1023,9 hPa 0,0 mm - 0,0 km/h 9,7 km/h S 0,0 W/qm 0,0 nein 16:45
16:501,6 °C 5,6 °C 6,7 °C 92 % 1023,9 hPa 0,0 mm - 0,0 km/h 6,5 km/h S 0,0 W/qm 0,0 nein 16:50
16:551,6 °C 5,6 °C 6,7 °C 92 % 1023,9 hPa 0,0 mm - 1,4 km/h 4,7 km/h S 0,0 W/qm 0,0 nein 16:55
17:001,6 °C 5,6 °C 6,7 °C 92 % 1023,9 hPa 0,0 mm - 1,4 km/h 4,7 km/h SO 0,0 W/qm 0,0 nein 17:00
UhrzeitTemperaturBoden 10cmBoden 20cmFeuchteLuftdruckNiederschlagEvapotranspirationWindWindböenWindrichtungSolarstrahlungUV-IndexSonne?Uhrzeit
17:051,6 °C 5,6 °C 6,7 °C 92 % 1023,9 hPa 0,0 mm 0,2 mm 1,4 km/h 4,7 km/h S 0,0 W/qm 0,0 nein 17:05
17:101,6 °C 5,6 °C 6,7 °C 92 % 1023,9 hPa 0,0 mm 0,2 mm 1,4 km/h 4,7 km/h SSO 0,0 W/qm 0,0 nein 17:10
17:151,6 °C 5,6 °C 6,7 °C 92 % 1023,9 hPa 0,0 mm - 1,4 km/h 6,5 km/h SSO 0,0 W/qm 0,0 nein 17:15
17:201,5 °C 5,6 °C 6,7 °C 92 % 1023,8 hPa 0,0 mm - 3,2 km/h 6,5 km/h S 0,0 W/qm 0,0 nein 17:20
17:251,4 °C 5,6 °C 6,7 °C 92 % 1023,9 hPa 0,0 mm - 4,7 km/h 13,0 km/h OSO 0,0 W/qm 0,0 nein 17:25
17:301,4 °C 5,6 °C 6,7 °C 92 % 1024,0 hPa 0,0 mm - 3,2 km/h 13,0 km/h SO 0,0 W/qm 0,0 nein 17:30
17:351,4 °C 5,6 °C 6,7 °C 92 % 1024,1 hPa 0,0 mm - 1,4 km/h 13,0 km/h SSO 0,0 W/qm 0,0 nein 17:35
17:401,4 °C 5,6 °C 6,7 °C 92 % 1024,1 hPa 0,0 mm - 3,2 km/h 9,7 km/h SSO 0,0 W/qm 0,0 nein 17:40
17:451,4 °C 5,6 °C 6,7 °C 92 % 1024,1 hPa 0,0 mm - 3,2 km/h 11,2 km/h SSO 0,0 W/qm 0,0 nein 17:45
17:501,4 °C 5,6 °C 6,7 °C 92 % 1024,2 hPa 0,0 mm - 1,4 km/h 11,2 km/h SO 0,0 W/qm 0,0 nein 17:50
17:551,4 °C 5,6 °C 6,7 °C 92 % 1024,2 hPa 0,0 mm - 1,4 km/h 9,7 km/h OSO 0,0 W/qm 0,0 nein 17:55
18:001,4 °C 5,6 °C 6,7 °C 93 % 1024,3 hPa 0,0 mm - 1,4 km/h 7,9 km/h O 0,0 W/qm 0,0 nein 18:00
18:051,4 °C 5,6 °C 6,7 °C 93 % 1024,3 hPa 0,0 mm 0,2 mm 1,4 km/h 7,9 km/h SSO 0,0 W/qm 0,0 nein 18:05
18:101,4 °C 5,6 °C 6,7 °C 93 % 1024,3 hPa 0,0 mm 0,2 mm 1,4 km/h 7,9 km/h SSO 0,0 W/qm 0,0 nein 18:10
18:151,4 °C 5,6 °C 6,7 °C 93 % 1024,4 hPa 0,0 mm - 1,4 km/h 7,9 km/h SSO 0,0 W/qm 0,0 nein 18:15
18:201,4 °C 5,6 °C 6,7 °C 93 % 1024,4 hPa 0,0 mm - 1,4 km/h 7,9 km/h S 0,0 W/qm 0,0 nein 18:20
18:251,4 °C 5,6 °C 6,7 °C 93 % 1024,5 hPa 0,0 mm - 4,7 km/h 9,7 km/h S 0,0 W/qm 0,0 nein 18:25
18:301,4 °C 5,6 °C 6,7 °C 93 % 1024,6 hPa 0,0 mm - 4,7 km/h 11,2 km/h SSO 0,0 W/qm 0,0 nein 18:30
18:351,4 °C 5,6 °C 6,7 °C 93 % 1024,6 hPa 0,0 mm - 3,2 km/h 11,2 km/h S 0,0 W/qm 0,0 nein 18:35
18:401,4 °C 5,6 °C 6,7 °C 93 % 1024,5 hPa 0,0 mm - 3,2 km/h 11,2 km/h SSW 0,0 W/qm 0,0 nein 18:40
18:451,4 °C 5,6 °C 6,7 °C 93 % 1024,5 hPa 0,0 mm - 4,7 km/h 9,7 km/h S 0,0 W/qm 0,0 nein 18:45
18:501,4 °C 5,6 °C 6,7 °C 93 % 1024,5 hPa 0,0 mm - 4,7 km/h 9,7 km/h SSO 0,0 W/qm 0,0 nein 18:50
18:551,3 °C 5,6 °C 6,7 °C 93 % 1024,6 hPa 0,0 mm - 3,2 km/h 11,2 km/h SSO 0,0 W/qm 0,0 nein 18:55
19:001,3 °C 5,6 °C 6,7 °C 93 % 1024,5 hPa 0,0 mm - 3,2 km/h 11,2 km/h SO 0,0 W/qm 0,0 nein 19:00
UhrzeitTemperaturBoden 10cmBoden 20cmFeuchteLuftdruckNiederschlagEvapotranspirationWindWindböenWindrichtungSolarstrahlungUV-IndexSonne?Uhrzeit
19:051,3 °C 5,6 °C 6,7 °C 93 % 1024,5 hPa 0,0 mm 0,2 mm 3,2 km/h 11,2 km/h SW 0,0 W/qm 0,0 nein 19:05
19:101,3 °C 5,6 °C 6,7 °C 93 % 1024,6 hPa 0,0 mm 0,2 mm 3,2 km/h 7,9 km/h SSO 0,0 W/qm 0,0 nein 19:10
19:151,3 °C 5,6 °C 6,7 °C 93 % 1024,6 hPa 0,0 mm - 3,2 km/h 7,9 km/h S 0,0 W/qm 0,0 nein 19:15
19:201,3 °C 5,6 °C 6,7 °C 93 % 1024,6 hPa 0,0 mm - 3,2 km/h 6,5 km/h S 0,0 W/qm 0,0 nein 19:20
19:251,2 °C 5,6 °C 6,7 °C 93 % 1024,6 hPa 0,0 mm - 3,2 km/h 9,7 km/h SSW 0,0 W/qm 0,0 nein 19:25
19:301,2 °C 5,6 °C 6,7 °C 93 % 1024,7 hPa 0,0 mm - 1,4 km/h 9,7 km/h SSO 0,0 W/qm 0,0 nein 19:30
19:351,2 °C 5,6 °C 6,7 °C 93 % 1024,6 hPa 0,0 mm - 1,4 km/h 9,7 km/h SSO 0,0 W/qm 0,0 nein 19:35
19:401,2 °C 5,6 °C 6,7 °C 93 % 1024,7 hPa 0,0 mm - 1,4 km/h 7,9 km/h SSO 0,0 W/qm 0,0 nein 19:40
19:451,2 °C 5,6 °C 6,7 °C 93 % 1024,7 hPa 0,0 mm - 3,2 km/h 7,9 km/h S 0,0 W/qm 0,0 nein 19:45
19:501,2 °C 5,6 °C 6,7 °C 93 % 1024,8 hPa 0,0 mm - 3,2 km/h 6,5 km/h S 0,0 W/qm 0,0 nein 19:50
19:551,2 °C 5,6 °C 6,7 °C 93 % 1024,8 hPa 0,0 mm - 3,2 km/h 7,9 km/h SSW 0,0 W/qm 0,0 nein 19:55
20:001,2 °C 5,6 °C 6,7 °C 93 % 1024,7 hPa 0,0 mm - 3,2 km/h 11,2 km/h SSO 0,0 W/qm 0,0 nein 20:00
Gesamt: 1,5 °C 5,7 °C 6,7 °C 93 % 1024,0 hPa 0,0 mm 1,7 mm 2,8 km/h 9,5 km/h 0 18,3 W/qm 0,0 nein

Insgesamt 228 Zeilen mal 13 Spalten = 2964 Werte werden angezeigt.

www.wetter-rosstal.de   •   www.wetter-franken.de   •   www.lightningmaps.org   •   Start   •   Kontakt / Datenschutz   •   PC-Kümmerer